Time;durP1;ratioP1;P1;durP2;ratioP2;P2;SDS_P1;SDS_P2;PMS_P1;PMS_P2;Temp;Humidity;BMP_temperature;BMP_pressure;BME280_temperature;BME280_humidity;BME280_pressure;Samples;Min_cycle;Max_cycle;Signal;HPM_P1;HPM_P2
2021/03/24 00:01:24;;;;;;;11.13;2.90;;;0.40;99.90;;;;;;4206134;28;20409;-61
2021/03/24 00:03:25;;;;;;;4.40;2.30;;;0.40;99.90;;;;;;4204894;28;20318;-60
2021/03/24 00:05:32;;;;;;;5.83;2.00;;;0.40;99.90;;;;;;4205360;28;20300;-63
2021/03/24 00:07:33;;;;;;;7.03;1.90;;;0.40;99.90;;;;;;4205286;28;20932;-61
2021/03/24 00:09:35;;;;;;;11.63;2.43;;;0.40;99.90;;;;;;4205934;28;20341;-61
2021/03/24 00:11:36;;;;;;;7.67;2.20;;;0.40;99.90;;;;;;4207812;28;20553;-62
2021/03/24 00:13:37;;;;;;;4.23;2.13;;;0.30;99.90;;;;;;4209470;28;20655;-61
2021/03/24 00:15:39;;;;;;;7.07;2.13;;;0.40;99.90;;;;;;4208057;28;20280;-61
2021/03/24 00:17:40;;;;;;;4.50;2.30;;;0.30;99.90;;;;;;4208722;28;21118;-59
2021/03/24 00:19:41;;;;;;;8.57;3.37;;;0.20;99.90;;;;;;4208533;28;20248;-64
2021/03/24 00:21:42;;;;;;;5.40;2.47;;;0.20;99.90;;;;;;4208257;28;20264;-61
2021/03/24 00:23:44;;;;;;;6.97;2.33;;;0.10;99.90;;;;;;4208699;28;20253;-62
2021/03/24 00:25:45;;;;;;;3.17;2.10;;;0.10;99.90;;;;;;4207565;28;20273;-63
2021/03/24 00:27:48;;;;;;;4.97;1.87;;;0.00;99.90;;;;;;4209479;28;20265;-62
2021/03/24 00:29:49;;;;;;;5.37;2.10;;;-0.10;99.90;;;;;;4208113;28;20269;-62
2021/03/24 00:31:50;;;;;;;3.33;1.77;;;0.00;99.90;;;;;;4209253;28;20339;-60
2021/03/24 00:33:52;;;;;;;5.00;1.50;;;-0.10;99.90;;;;;;4207788;28;20317;-62
2021/03/24 00:35:53;;;;;;;1.97;1.30;;;-0.20;99.90;;;;;;4207885;28;20281;-61
2021/03/24 00:37:55;;;;;;;3.67;1.60;;;-0.30;99.90;;;;;;4207977;28;20264;-63
2021/03/24 00:39:58;;;;;;;3.40;1.90;;;-0.30;99.90;;;;;;4209273;28;20321;-62
2021/03/24 00:41:59;;;;;;;3.13;1.70;;;-0.30;99.90;;;;;;4207729;28;20281;-60
2021/03/24 00:44:00;;;;;;;3.73;1.83;;;-0.40;99.90;;;;;;4207675;28;20269;-62
2021/03/24 00:46:01;;;;;;;3.97;1.70;;;-0.40;99.90;;;;;;4207566;28;21172;-63
2021/03/24 00:48:05;;;;;;;3.77;1.50;;;-0.50;99.90;;;;;;4208268;28;20295;-62
2021/03/24 00:50:08;;;;;;;2.90;1.50;;;-0.50;99.90;;;;;;4207877;28;20292;-62
2021/03/24 00:52:09;;;;;;;2.50;1.37;;;-0.60;99.90;;;;;;4207303;28;20378;-63
2021/03/24 00:54:10;;;;;;;3.13;1.67;;;-0.60;99.90;;;;;;4208556;28;20768;-62
2021/03/24 00:56:11;;;;;;;3.67;1.43;;;-0.60;99.90;;;;;;4208070;28;20264;-64
2021/03/24 00:58:12;;;;;;;4.10;1.87;;;-0.60;99.90;;;;;;4208949;28;20949;-63
2021/03/24 01:00:30;;;;;;;6.40;1.77;;;-0.70;99.90;;;;;;4208077;28;20667;-62
2021/03/24 01:02:31;;;;;;;11.40;1.80;;;-0.70;99.90;;;;;;4208719;28;20273;-63
2021/03/24 01:04:32;;;;;;;3.87;1.60;;;-0.70;99.90;;;;;;4207122;28;20354;-62
2021/03/24 01:06:35;;;;;;;4.77;1.40;;;-0.80;99.90;;;;;;4208926;28;20281;-62
2021/03/24 01:08:36;;;;;;;2.60;1.67;;;-0.80;99.90;;;;;;4207014;28;21216;-62
2021/03/24 01:10:39;;;;;;;3.60;2.20;;;-0.80;99.90;;;;;;4208937;28;20698;-64
2021/03/24 01:12:40;;;;;;;4.03;1.80;;;-0.90;99.90;;;;;;4207432;28;20277;-62
2021/03/24 01:14:41;;;;;;;3.13;1.00;;;-0.90;99.90;;;;;;4208833;28;20270;-64
2021/03/24 01:16:43;;;;;;;6.40;1.23;;;-1.00;99.90;;;;;;4207267;28;20610;-62
2021/03/24 01:18:44;;;;;;;2.20;1.33;;;-1.00;99.90;;;;;;4208870;28;20314;-61
2021/03/24 01:20:45;;;;;;;4.27;1.40;;;-1.00;99.90;;;;;;4206866;28;20740;-60
2021/03/24 01:22:47;;;;;;;3.03;1.20;;;-1.10;99.90;;;;;;4208394;28;20314;-61
2021/03/24 01:24:48;;;;;;;3.20;1.77;;;-1.20;99.90;;;;;;4207814;28;20345;-61
2021/03/24 01:26:49;;;;;;;4.73;1.60;;;-1.30;99.90;;;;;;4207804;28;20322;-62
2021/03/24 01:28:57;;;;;;;4.07;1.20;;;-1.30;99.90;;;;;;4208061;28;20330;-64
2021/03/24 01:31:00;;;;;;;3.07;1.10;;;-1.30;99.90;;;;;;4208103;28;20253;-62
2021/03/24 01:33:01;;;;;;;1.60;0.93;;;-1.30;99.90;;;;;;4207744;28;20273;-62
2021/03/24 01:35:05;;;;;;;2.73;1.20;;;-1.20;99.90;;;;;;4207155;28;20974;-66
2021/03/24 01:37:06;;;;;;;2.30;1.10;;;-1.20;99.90;;;;;;4208625;28;20245;-63
2021/03/24 01:39:07;;;;;;;1.63;1.00;;;-1.20;99.80;;;;;;4207248;28;20257;-62
2021/03/24 01:41:08;;;;;;;1.90;1.00;;;-1.20;99.70;;;;;;4207713;28;20261;-60
2021/03/24 01:43:23;;;;;;;1.60;0.80;;;-1.20;99.40;;;;;;4206612;28;21093;-62
2021/03/24 01:45:24;;;;;;;3.37;1.10;;;-1.20;99.00;;;;;;4208117;28;20851;-61
2021/03/24 01:47:25;;;;;;;9.60;1.80;;;-1.10;97.80;;;;;;4205740;28;20269;-62
2021/03/24 01:49:37;;;;;;;16.33;2.40;;;-1.10;98.20;;;;;;4207208;28;20699;-62
2021/03/24 01:52:06;;;;;;;17.63;2.07;;;-1.00;98.70;;;;;;4206866;28;20273;-63
2021/03/24 01:54:10;;;;;;;20.37;3.03;;;-1.00;98.90;;;;;;4206955;28;20269;-62
2021/03/24 01:56:14;;;;;;;12.67;2.33;;;-0.90;98.50;;;;;;4206330;28;21154;-62
2021/03/24 01:58:15;;;;;;;10.20;2.60;;;-0.90;99.00;;;;;;4207736;28;20769;-62
2021/03/24 02:00:28;;;;;;;4.80;2.00;;;-0.80;99.30;;;;;;4206584;28;20265;-62
2021/03/24 02:02:36;;;;;;;5.27;1.50;;;-0.90;99.10;;;;;;4208056;28;20269;-62
2021/03/24 02:04:37;;;;;;;3.47;1.20;;;-0.90;99.00;;;;;;4205910;28;21128;-61
2021/03/24 02:06:41;;;;;;;1.27;0.70;;;-0.90;99.30;;;;;;4208160;28;20893;-61
2021/03/24 02:08:47;;;;;;;3.90;1.87;;;-1.00;99.10;;;;;;4206750;28;20272;-63
2021/03/24 02:11:00;;;;;;;4.53;2.00;;;-1.00;99.20;;;;;;4207757;28;20292;-61
2021/03/24 02:13:10;;;;;;;10.17;3.30;;;-1.00;99.90;;;;;;4205112;28;20358;-64
2021/03/24 02:15:22;;;;;;;6.07;3.23;;;-1.20;99.90;;;;;;4208224;28;20345;-61
2021/03/24 02:17:27;;;;;;;6.00;2.97;;;-1.30;99.90;;;;;;4205921;28;20329;-60
2021/03/24 02:19:48;;;;;;;6.70;3.23;;;-1.40;99.90;;;;;;4207518;28;20342;-62
2021/03/24 02:21:50;;;;;;;8.13;3.30;;;-1.60;99.90;;;;;;4201802;28;20284;-61
2021/03/24 02:24:28;;;;;;;7.50;3.03;;;-1.70;99.90;;;;;;4207680;28;20082;-61
2021/03/24 02:26:29;;;;;;;6.90;3.33;;;-1.80;99.90;;;;;;4205570;28;20288;-61
2021/03/24 02:28:32;;;;;;;4.90;1.63;;;-1.80;99.90;;;;;;4207639;28;20330;-61
2021/03/24 02:30:36;;;;;;;2.93;1.97;;;-1.80;99.90;;;;;;4206522;28;20756;-64
2021/03/24 02:32:45;;;;;;;3.63;2.10;;;-1.90;99.90;;;;;;4207020;28;20285;-61
2021/03/24 02:34:47;;;;;;;8.93;2.87;;;-1.90;99.90;;;;;;4206535;28;20686;-61
2021/03/24 02:36:52;;;;;;;4.83;2.53;;;-1.90;99.90;;;;;;4208131;28;20345;-59
2021/03/24 02:38:57;;;;;;;4.07;2.17;;;-1.90;99.90;;;;;;4205821;28;20272;-60
2021/03/24 02:40:59;;;;;;;4.37;2.47;;;-2.00;99.90;;;;;;4207394;28;20346;-61
2021/03/24 02:43:01;;;;;;;3.07;2.13;;;-2.00;99.90;;;;;;4205684;28;20752;-62
2021/03/24 02:45:06;;;;;;;4.00;2.40;;;-2.00;99.90;;;;;;4207256;28;20322;-62
2021/03/24 02:47:08;;;;;;;4.40;1.97;;;-2.00;99.90;;;;;;4205534;28;20663;-61
2021/03/24 02:49:11;;;;;;;4.47;2.00;;;-2.00;99.90;;;;;;4207270;28;20276;-62
2021/03/24 02:51:22;;;;;;;2.97;1.50;;;-2.00;99.90;;;;;;4206103;28;20256;-61
2021/03/24 02:53:25;;;;;;;4.15;1.73;;;-2.00;99.90;;;;;;4206876;28;20261;-61
2021/03/24 02:55:29;;;;;;;4.70;1.73;;;-2.00;99.90;;;;;;4205903;28;20027;-63
2021/03/24 02:57:30;;;;;;;3.47;2.50;;;-2.00;99.90;;;;;;4206251;28;20288;-61
2021/03/24 02:59:31;;;;;;;4.10;2.03;;;-2.00;99.90;;;;;;4207073;28;20249;-61
2021/03/24 03:02:02;;;;;;;3.70;1.60;;;-2.00;99.90;;;;;;4205908;28;20829;-66
2021/03/24 03:04:43;;;;;;;5.53;1.87;;;-2.00;99.90;;;;;;4206181;28;20666;-61
2021/03/24 03:06:46;;;;;;;3.53;1.37;;;-2.00;99.90;;;;;;4207190;28;20675;-61
2021/03/24 03:08:55;;;;;;;3.83;2.13;;;-2.00;99.90;;;;;;4205641;28;20036;-61
2021/03/24 03:11:02;;;;;;;3.27;1.73;;;-2.10;99.90;;;;;;4206363;28;20276;-57
2021/03/24 03:13:16;;;;;;;3.77;1.80;;;-2.10;99.90;;;;;;4205430;28;20265;-63
2021/03/24 03:15:27;;;;;;;3.33;1.90;;;-2.10;99.90;;;;;;4206618;28;20268;-61
2021/03/24 03:17:41;;;;;;;3.57;2.40;;;-2.10;99.90;;;;;;4205401;28;20737;-61
2021/03/24 03:20:00;;;;;;;3.30;1.67;;;-2.10;99.90;;;;;;4206996;28;20313;-62
2021/03/24 03:22:06;;;;;;;4.80;1.97;;;-2.10;99.90;;;;;;4205119;28;20319;-62
2021/03/24 03:24:10;;;;;;;4.20;2.50;;;-2.10;99.90;;;;;;4207077;28;20318;-60
2021/03/24 03:26:18;;;;;;;4.50;2.20;;;-2.20;99.90;;;;;;4204919;28;20296;-63
2021/03/24 03:28:19;;;;;;;4.10;2.43;;;-2.20;99.90;;;;;;4206623;28;20745;-61
2021/03/24 03:30:27;;;;;;;3.50;2.00;;;-2.20;99.90;;;;;;4205493;28;20322;-62
2021/03/24 03:32:30;;;;;;;3.50;2.10;;;-2.20;99.90;;;;;;4206739;28;20273;-61
2021/03/24 03:34:33;;;;;;;5.87;1.93;;;-2.20;99.90;;;;;;4205180;28;20268;-61
2021/03/24 03:36:37;;;;;;;3.60;1.70;;;-2.20;99.90;;;;;;4205389;28;20691;-61
2021/03/24 03:38:40;;;;;;;3.63;2.10;;;-2.30;99.90;;;;;;4204736;28;20330;-61
2021/03/24 03:40:44;;;;;;;4.83;2.20;;;-2.30;99.90;;;;;;4205696;28;20608;-61
2021/03/24 03:42:45;;;;;;;3.13;1.83;;;-2.30;99.90;;;;;;4205878;28;20341;-61
2021/03/24 03:44:47;;;;;;;10.63;2.87;;;-2.30;99.90;;;;;;4204901;28;21025;-64
2021/03/24 03:46:51;;;;;;;4.10;2.10;;;-2.30;99.90;;;;;;4206384;28;20309;-63
2021/03/24 03:48:52;;;;;;;5.43;2.50;;;-2.30;99.90;;;;;;4205566;28;20656;-60
2021/03/24 03:51:01;;;;;;;7.20;2.90;;;-2.30;99.90;;;;;;4206789;28;20794;-61
2021/03/24 03:53:25;;;;;;;9.70;2.80;;;-2.40;99.90;;;;;;4204902;28;20286;-61
2021/03/24 03:55:52;;;;;;;8.80;2.97;;;-2.40;99.90;;;;;;4203192;28;20749;-62
2021/03/24 03:57:55;;;;;;;7.97;3.37;;;-2.40;99.90;;;;;;4205389;28;20675;-61
2021/03/24 04:00:03;;;;;;;7.37;3.67;;;-2.50;99.90;;;;;;4206348;28;20441;-62
2021/03/24 04:02:09;;;;;;;12.43;3.55;;;-2.50;99.90;;;;;;4205242;28;20652;-61
2021/03/24 04:04:12;;;;;;;6.57;3.25;;;-2.50;99.90;;;;;;4205988;28;20476;-62
2021/03/24 04:06:19;;;;;;;17.98;7.72;;;-2.50;99.90;;;;;;4204957;28;20036;-61
2021/03/24 04:08:29;;;;;;;20.95;9.50;;;-2.60;99.90;;;;;;4206059;28;20042;-61
2021/03/24 04:10:34;;;;;;;12.48;6.57;;;-2.60;99.90;;;;;;4204826;28;20062;-61
2021/03/24 04:12:39;;;;;;;9.98;5.50;;;-2.60;99.90;;;;;;4206553;28;20742;-62
2021/03/24 04:14:43;;;;;;;9.88;5.78;;;-2.60;99.90;;;;;;4204941;28;20496;-60
2021/03/24 04:16:46;;;;;;;12.98;7.15;;;-2.60;99.90;;;;;;4206337;28;20085;-62
2021/03/24 04:19:03;;;;;;;16.65;8.38;;;-2.60;99.90;;;;;;4204955;28;20559;-61
2021/03/24 04:21:06;;;;;;;11.57;5.70;;;-2.60;99.90;;;;;;4205937;28;20029;-60
2021/03/24 04:23:11;;;;;;;12.88;7.65;;;-2.60;99.90;;;;;;4204976;28;20314;-61
2021/03/24 04:25:22;;;;;;;9.27;5.20;;;-2.60;99.90;;;;;;4205983;28;20484;-61
2021/03/24 04:27:28;;;;;;;19.90;7.70;;;-2.50;99.90;;;;;;4203144;28;21165;-62
2021/03/24 04:29:40;;;;;;;14.30;6.40;;;-2.60;99.90;;;;;;4205704;28;20533;-63
2021/03/24 04:31:50;;;;;;;13.15;6.57;;;-2.50;99.90;;;;;;4204816;28;20268;-61
2021/03/24 04:33:51;;;;;;;13.03;5.57;;;-2.50;99.90;;;;;;4206346;28;20040;-62
2021/03/24 04:35:56;;;;;;;14.38;6.55;;;-2.50;99.90;;;;;;4204670;28;20292;-63
2021/03/24 04:38:02;;;;;;;21.77;8.73;;;-2.50;99.90;;;;;;4206020;28;20024;-62
2021/03/24 04:40:09;;;;;;;26.70;12.63;;;-2.50;99.90;;;;;;4203442;28;20040;-64
2021/03/24 04:42:34;;;;;;;30.17;11.70;;;-2.40;99.90;;;;;;4206015;28;20265;-62
2021/03/24 04:44:37;;;;;;;23.03;11.30;;;-1.90;99.90;;;;;;4204057;28;20415;-62
2021/03/24 04:46:41;;;;;;;21.70;10.13;;;-1.60;99.90;;;;;;4206165;28;20276;-63
2021/03/24 04:48:55;;;;;;;20.53;8.70;;;-1.20;99.90;;;;;;4204060;28;20773;-62
2021/03/24 04:51:04;;;;;;;36.60;13.43;;;-0.70;99.90;;;;;;4206106;28;20273;-62
2021/03/24 04:53:09;;;;;;;43.37;18.67;;;-0.30;99.90;;;;;;4204248;28;20272;-63
2021/03/24 04:55:15;;;;;;;32.47;13.57;;;0.00;99.90;;;;;;4206209;28;20334;-62
2021/03/24 04:57:20;;;;;;;30.90;13.90;;;0.30;99.90;;;;;;4206327;28;20287;-62
2021/03/24 04:59:32;;;;;;;38.70;15.97;;;0.60;99.90;;;;;;4208155;28;20761;-59
2021/03/24 05:01:41;;;;;;;45.13;19.07;;;1.00;99.90;;;;;;4205451;28;20675;-60
2021/03/24 05:03:45;;;;;;;31.50;13.63;;;1.40;99.40;;;;;;4209124;28;20265;-61
2021/03/24 05:05:56;;;;;;;26.97;11.83;;;1.80;99.20;;;;;;4207068;28;20780;-62
2021/03/24 05:08:00;;;;;;;22.30;10.40;;;2.20;96.90;;;;;;4208827;28;20276;-62
2021/03/24 05:10:05;;;;;;;38.33;14.70;;;2.60;95.80;;;;;;4207230;28;20032;-63
2021/03/24 05:12:22;;;;;;;31.83;15.60;;;2.80;94.70;;;;;;4208797;28;20314;-62
2021/03/24 05:14:26;;;;;;;37.90;16.83;;;3.20;92.50;;;;;;4206628;28;20314;-62
2021/03/24 05:16:37;;;;;;;51.40;24.73;;;3.50;92.90;;;;;;4207445;28;20280;-65
2021/03/24 05:18:38;;;;;;;26.70;12.77;;;3.90;90.20;;;;;;4206413;28;20280;-64
2021/03/24 05:21:00;;;;;;;28.50;13.73;;;4.00;90.70;;;;;;4208368;28;20281;-64
2021/03/24 05:23:07;;;;;;;42.37;20.20;;;4.30;90.00;;;;;;4206352;28;20738;-63
2021/03/24 05:25:23;;;;;;;44.37;19.77;;;4.70;87.10;;;;;;4208529;28;20257;-62
2021/03/24 05:27:56;;;;;;;66.67;26.07;;;5.30;86.40;;;;;;4206936;28;20792;-62
2021/03/24 05:30:05;;;;;;;46.23;23.17;;;6.00;80.30;;;;;;4193694;28;20365;-65
2021/03/24 05:32:14;;;;;;;53.00;23.20;;;6.50;82.60;;;;;;4205333;28;20261;-63
2021/03/24 05:34:22;;;;;;;35.50;16.50;;;6.90;77.90;;;;;;4208433;28;20272;-64
2021/03/24 05:36:56;;;;;;;41.13;16.47;;;7.20;77.80;;;;;;4206732;28;20462;-62
2021/03/24 05:39:17;;;;;;;17.63;6.40;;;7.50;71.30;;;;;;4183559;28;20105;-67
2021/03/24 05:41:21;;;;;;;21.67;6.80;;;7.90;74.20;;;;;;4205603;28;20036;-64
2021/03/24 05:43:50;;;;;;;13.30;4.40;;;8.00;71.50;;;;;;4202115;28;20481;-63
2021/03/24 05:45:56;;;;;;;7.30;3.13;;;7.70;65.90;;;;;;4206232;28;20428;-66
2021/03/24 05:48:18;;;;;;;7.57;2.13;;;7.60;62.10;;;;;;4207056;28;20537;-62
2021/03/24 05:50:56;;;;;;;4.63;1.70;;;7.00;64.20;;;;;;4206749;28;20431;-63
2021/03/24 05:53:21;;;;;;;12.83;3.00;;;6.00;59.30;;;;;;4206528;28;20894;-63
2021/03/24 05:55:41;;;;;;;3.93;1.53;;;5.10;60.60;;;;;;4207548;28;20036;-63
2021/03/24 05:58:01;;;;;;;5.60;2.08;;;4.70;60.50;;;;;;4189478;28;20066;-60
2021/03/24 06:00:25;;;;;;;2.97;0.83;;;4.40;61.20;;;;;;4191882;28;20040;-63
2021/03/24 06:03:04;;;;;;;4.50;1.20;;;4.50;60.60;;;;;;4201234;28;20350;-62
2021/03/24 06:05:29;;;;;;;4.27;1.80;;;4.00;59.40;;;;;;4206299;28;20044;-63
2021/03/24 06:07:38;;;;;;;3.70;1.40;;;4.00;60.90;;;;;;4205116;28;21010;-62
2021/03/24 06:10:28;;;;;;;5.70;2.33;;;4.10;62.20;;;;;;4189757;28;20293;-65
2021/03/24 06:12:46;;;;;;;4.50;1.50;;;4.30;61.90;;;;;;4171330;28;20041;-63
2021/03/24 06:14:47;;;;;;;4.03;2.07;;;4.50;60.90;;;;;;4189335;28;20277;-61
2021/03/24 06:17:21;;;;;;;3.03;1.60;;;4.40;61.50;;;;;;4203440;28;20744;-63
2021/03/24 06:19:30;;;;;;;4.03;1.40;;;4.60;61.00;;;;;;4205857;28;20277;-63
2021/03/24 06:21:50;;;;;;;1.77;1.00;;;4.60;61.50;;;;;;4190743;28;20277;-63
2021/03/24 06:24:10;;;;;;;3.37;1.50;;;4.80;61.50;;;;;;4189057;28;20265;-62
2021/03/24 06:26:39;;;;;;;2.80;1.00;;;4.90;61.10;;;;;;4190328;28;20351;-62
2021/03/24 06:28:44;;;;;;;1.30;0.93;;;4.90;59.90;;;;;;4188837;28;20273;-62
2021/03/24 06:31:00;;;;;;;3.23;1.13;;;4.80;60.10;;;;;;4191524;28;20269;-62
2021/03/24 06:33:08;;;;;;;5.30;1.80;;;4.60;59.00;;;;;;4189033;28;20307;-61
2021/03/24 06:35:54;;;;;;;3.03;1.23;;;4.80;59.80;;;;;;4190857;28;20832;-62
2021/03/24 06:38:23;;;;;;;2.53;0.97;;;4.70;59.10;;;;;;4189565;28;20351;-62
2021/03/24 06:40:43;;;;;;;8.30;3.60;;;4.80;59.20;;;;;;4188860;28;20269;-63
2021/03/24 06:43:00;;;;;;;2.17;1.13;;;4.70;58.30;;;;;;4189864;28;20741;-61
2021/03/24 06:45:28;;;;;;;2.07;1.30;;;4.50;57.90;;;;;;4188594;28;20311;-62
2021/03/24 06:47:29;;;;;;;2.90;1.20;;;4.40;59.70;;;;;;4190406;28;20343;-64
2021/03/24 06:49:38;;;;;;;9.33;1.00;;;4.70;61.30;;;;;;4199954;28;20277;-65
2021/03/24 06:51:57;;;;;;;2.93;0.90;;;4.80;57.90;;;;;;4206061;28;20325;-62
2021/03/24 06:54:24;;;;;;;4.20;1.00;;;4.60;58.00;;;;;;4202233;28;20273;-60
2021/03/24 06:56:40;;;;;;;2.47;1.10;;;4.40;57.10;;;;;;4203868;28;20257;-61
2021/03/24 06:58:55;;;;;;;4.03;1.37;;;4.10;57.80;;;;;;4202788;28;21027;-60
2021/03/24 07:01:29;;;;;;;1.20;0.70;;;4.00;59.00;;;;;;4207329;28;20260;-62
2021/03/24 07:03:51;;;;;;;4.57;1.03;;;3.90;58.80;;;;;;4200154;28;20276;-60
2021/03/24 07:06:14;;;;;;;2.47;1.17;;;4.20;59.30;;;;;;4194690;28;21257;-63
2021/03/24 07:08:24;;;;;;;4.17;1.80;;;4.20;57.60;;;;;;4205868;28;20749;-64
2021/03/24 07:10:34;;;;;;;3.15;1.20;;;4.10;57.40;;;;;;4204396;28;20252;-62
2021/03/24 07:13:06;;;;;;;3.55;1.65;;;3.80;58.20;;;;;;4206213;28;20090;-60
2021/03/24 07:15:29;;;;;;;3.77;1.23;;;3.80;57.80;;;;;;4205726;28;20028;-59
2021/03/24 07:17:48;;;;;;;3.37;1.43;;;3.80;59.10;;;;;;4206775;28;20264;-60
2021/03/24 07:19:52;;;;;;;5.07;1.33;;;4.00;59.30;;;;;;4204676;28;20729;-59
2021/03/24 07:22:02;;;;;;;11.83;2.07;;;4.10;59.20;;;;;;4206567;28;20257;-60
2021/03/24 07:24:12;;;;;;;2.47;1.10;;;4.60;60.20;;;;;;4204457;28;20659;-60
2021/03/24 07:26:42;;;;;;;6.87;1.90;;;5.00;59.50;;;;;;4206409;28;20349;-62
2021/03/24 07:29:19;;;;;;;1.75;1.00;;;5.20;58.10;;;;;;4205313;28;20310;-61
2021/03/24 07:31:38;;;;;;;4.93;1.43;;;4.70;56.80;;;;;;4207195;28;20462;-61
2021/03/24 07:33:46;;;;;;;8.03;1.83;;;4.40;56.70;;;;;;4203723;28;20292;-59
2021/03/24 07:36:15;;;;;;;7.17;1.50;;;4.10;58.00;;;;;;4206674;28;20322;-62
2021/03/24 07:38:34;;;;;;;1.43;0.70;;;4.00;55.50;;;;;;4202155;28;20314;-59
2021/03/24 07:40:53;;;;;;;4.27;0.73;;;4.00;55.70;;;;;;4203582;28;20402;-60
2021/03/24 07:42:55;;;;;;;1.10;0.40;;;3.90;54.70;;;;;;4205413;28;20350;-62
2021/03/24 07:45:21;;;;;;;1.63;0.70;;;3.90;54.50;;;;;;4205491;28;20786;-61
2021/03/24 07:47:25;;;;;;;4.23;0.80;;;3.90;53.00;;;;;;4204915;28;20330;-60
2021/03/24 07:50:04;;;;;;;8.80;1.13;;;4.00;54.50;;;;;;4205525;28;20317;-60
2021/03/24 07:52:35;;;;;;;2.27;0.90;;;3.90;52.70;;;;;;4206469;28;21158;-59
2021/03/24 07:55:00;;;;;;;2.60;0.30;;;3.70;54.30;;;;;;4202874;28;20261;-62
2021/03/24 07:57:20;;;;;;;1.50;0.60;;;3.80;53.50;;;;;;4206348;28;20886;-61
2021/03/24 07:59:31;;;;;;;4.25;1.13;;;3.60;53.70;;;;;;4205100;28;20330;-61
2021/03/24 08:01:55;;;;;;;1.92;0.73;;;3.60;53.50;;;;;;4190184;28;20146;-62
2021/03/24 08:03:56;;;;;;;1.80;0.57;;;3.50;53.70;;;;;;4188406;28;20334;-60
2021/03/24 08:06:29;;;;;;;1.17;0.50;;;3.70;50.60;;;;;;4201938;28;20668;-59
2021/03/24 08:08:55;;;;;;;5.20;0.70;;;3.70;51.90;;;;;;4205331;28;20288;-61
2021/03/24 08:11:29;;;;;;;5.20;0.80;;;3.60;52.30;;;;;;4205516;28;20261;-59
2021/03/24 08:13:48;;;;;;;0.73;0.40;;;3.50;52.70;;;;;;4204891;28;20272;-62
2021/03/24 08:16:29;;;;;;;2.23;0.77;;;3.50;52.10;;;;;;4204900;28;20743;-60
2021/03/24 08:18:33;;;;;;;3.40;0.80;;;3.40;53.40;;;;;;4204858;28;20635;-60
2021/03/24 08:20:36;;;;;;;1.07;0.50;;;3.40;54.10;;;;;;4203910;28;20284;-59
2021/03/24 08:23:18;;;;;;;2.93;1.23;;;3.40;53.40;;;;;;4206029;28;20341;-59
2021/03/24 08:26:10;;;;;;;1.10;0.60;;;3.40;52.00;;;;;;4203832;28;20265;-60
2021/03/24 08:28:17;;;;;;;2.50;0.50;;;3.40;53.50;;;;;;4196011;28;20308;-59
2021/03/24 08:30:46;;;;;;;0.70;0.50;;;3.70;54.80;;;;;;4205561;28;20265;-62
2021/03/24 08:32:56;;;;;;;0.87;0.30;;;3.80;53.60;;;;;;4185922;28;20280;-61
2021/03/24 08:35:13;;;;;;;5.93;2.17;;;3.90;53.00;;;;;;4209017;28;20273;-57
2021/03/24 08:37:52;;;;;;;2.43;0.80;;;3.80;55.50;;;;;;4207841;28;20304;-61
2021/03/24 08:40:10;;;;;;;2.30;0.93;;;4.00;55.10;;;;;;4192358;28;20622;-60
2021/03/24 08:42:53;;;;;;;1.93;0.40;;;4.50;54.50;;;;;;4207427;28;20276;-59
2021/03/24 08:44:59;;;;;;;1.50;0.40;;;4.30;52.00;;;;;;4209591;28;20260;-61
2021/03/24 08:47:14;;;;;;;1.63;0.70;;;4.10;51.60;;;;;;4207030;28;20352;-62
2021/03/24 08:49:20;;;;;;;4.00;1.00;;;3.80;52.30;;;;;;4208938;28;20337;-61
2021/03/24 08:51:42;;;;;;;4.03;0.90;;;3.70;52.10;;;;;;4207734;28;20420;-60
2021/03/24 08:54:13;;;;;;;2.00;0.63;;;3.70;52.90;;;;;;4207367;28;20737;-62
2021/03/24 08:56:30;;;;;;;5.25;0.50;;;3.60;53.10;;;;;;4203793;28;20825;-61
2021/03/24 08:58:33;;;;;;;3.80;0.30;;;3.60;54.80;;;;;;4201290;28;20077;-59
2021/03/24 09:00:47;;;;;;;4.30;0.50;;;3.70;54.60;;;;;;4207096;28;20754;-63
2021/03/24 09:03:10;;;;;;;2.00;0.57;;;3.70;54.30;;;;;;4206638;28;20679;-62
2021/03/24 09:05:29;;;;;;;5.63;0.90;;;4.00;53.90;;;;;;4207984;28;20330;-61
2021/03/24 09:07:55;;;;;;;1.43;0.40;;;4.20;55.50;;;;;;4207634;28;20342;-61
2021/03/24 09:10:20;;;;;;;4.77;0.73;;;4.00;52.30;;;;;;4208764;28;20264;-61
2021/03/24 09:12:29;;;;;;;2.00;0.40;;;4.10;54.00;;;;;;4205631;28;20764;-61
2021/03/24 09:14:37;;;;;;;2.73;0.87;;;4.00;53.30;;;;;;4209043;28;20269;-61
2021/03/24 09:16:50;;;;;;;4.07;0.60;;;4.30;54.90;;;;;;4207362;28;20268;-61
2021/03/24 09:19:13;;;;;;;2.13;1.10;;;5.00;54.40;;;;;;4207468;28;20326;-61
2021/03/24 09:21:28;;;;;;;7.23;1.00;;;5.00;53.30;;;;;;4205341;28;20268;-62
2021/03/24 09:23:50;;;;;;;2.50;0.60;;;4.50;53.20;;;;;;4208067;28;20644;-61
2021/03/24 09:26:13;;;;;;;3.60;1.10;;;4.90;54.20;;;;;;4206770;28;20273;-63
2021/03/24 09:28:40;;;;;;;3.33;0.80;;;5.30;52.90;;;;;;4208005;28;20647;-63
2021/03/24 09:31:29;;;;;;;3.73;1.00;;;5.60;53.00;;;;;;4206163;28;20273;-61
2021/03/24 09:33:48;;;;;;;5.77;0.60;;;5.90;52.80;;;;;;4170734;28;20278;-62
2021/03/24 09:36:29;;;;;;;2.40;0.80;;;5.90;52.40;;;;;;4206782;28;20273;-61
2021/03/24 09:38:35;;;;;;;;;;;5.80;49.90;;;;;;4203865;28;20273;-66
2021/03/24 09:40:43;;;;;;;7.40;1.67;;;5.20;50.20;;;;;;4208233;28;19965;-61
2021/03/24 09:42:50;;;;;;;2.57;0.80;;;5.10;51.90;;;;;;4205806;28;20272;-61
2021/03/24 09:44:56;;;;;;;8.10;1.07;;;4.60;50.30;;;;;;4207975;28;20314;-60
2021/03/24 09:46:57;;;;;;;3.90;1.07;;;4.30;49.40;;;;;;4201764;28;20346;-61
2021/03/24 09:49:02;;;;;;;0.43;0.17;;;4.10;50.40;;;;;;4208214;28;20272;-62
2021/03/24 09:51:15;;;;;;;4.93;0.63;;;3.90;49.80;;;;;;4206201;28;20273;-62
2021/03/24 09:53:26;;;;;;;0.80;0.40;;;3.80;50.40;;;;;;4207430;28;20322;-61
2021/03/24 09:55:32;;;;;;;9.50;3.03;;;3.70;49.00;;;;;;4200306;28;20315;-58
2021/03/24 09:57:54;;;;;;;4.87;1.03;;;3.60;48.80;;;;;;4207768;28;20277;-60
2021/03/24 10:00:12;;;;;;;2.17;1.40;;;3.60;47.80;;;;;;4206378;28;20624;-59
2021/03/24 10:02:22;;;;;;;2.43;0.73;;;3.70;49.70;;;;;;4208125;28;20269;-61
2021/03/24 10:04:45;;;;;;;1.25;0.70;;;3.80;50.70;;;;;;4205058;28;20280;-60
2021/03/24 10:07:07;;;;;;;2.63;0.73;;;4.00;50.90;;;;;;4207169;28;21048;-59
2021/03/24 10:09:29;;;;;;;3.90;1.97;;;4.00;50.50;;;;;;4204097;28;20322;-60
2021/03/24 10:11:41;;;;;;;6.23;1.33;;;3.90;50.80;;;;;;4206908;28;20272;-60
2021/03/24 10:13:49;;;;;;;1.93;1.00;;;4.30;51.30;;;;;;4205749;28;20322;-62
2021/03/24 10:15:58;;;;;;;7.17;1.80;;;4.60;51.10;;;;;;4207844;28;20333;-59
2021/03/24 10:18:08;;;;;;;2.10;0.60;;;4.70;50.50;;;;;;4205578;28;20288;-61
2021/03/24 10:20:26;;;;;;;4.00;0.63;;;4.80;50.40;;;;;;4207003;28;20284;-59
2021/03/24 10:22:42;;;;;;;1.77;0.50;;;4.80;50.60;;;;;;4205337;28;20285;-60
2021/03/24 10:24:47;;;;;;;1.17;0.50;;;4.80;49.60;;;;;;4205612;28;20277;-62
2021/03/24 10:27:06;;;;;;;3.60;1.10;;;4.70;49.00;;;;;;4189430;28;20719;-60
2021/03/24 10:29:11;;;;;;;4.17;0.57;;;4.90;51.00;;;;;;4193183;28;20265;-61
2021/03/24 10:31:18;;;;;;;4.10;0.80;;;4.90;50.00;;;;;;4202295;28;20260;-60
2021/03/24 10:33:32;;;;;;;1.03;0.63;;;4.80;49.10;;;;;;4205900;28;20265;-61
2021/03/24 10:35:52;;;;;;;2.97;0.87;;;4.60;48.40;;;;;;4205477;28;20277;-60
2021/03/24 10:37:58;;;;;;;2.70;1.00;;;4.30;48.30;;;;;;4203080;28;20276;-62
2021/03/24 10:40:03;;;;;;;11.97;1.53;;;4.10;48.90;;;;;;4203661;28;20261;-60
2021/03/24 10:42:23;;;;;;;0.90;0.37;;;4.00;48.00;;;;;;4206833;28;20268;-59
2021/03/24 10:44:39;;;;;;;0.60;0.50;;;4.10;46.70;;;;;;4205554;28;20256;-61
2021/03/24 10:47:00;;;;;;;1.17;0.40;;;3.90;47.60;;;;;;4198399;28;20333;-60
2021/03/24 10:49:16;;;;;;;1.70;0.40;;;3.90;47.60;;;;;;4205097;28;20272;-59
2021/03/24 10:51:45;;;;;;;2.50;1.00;;;3.90;47.00;;;;;;4205676;28;20253;-57
2021/03/24 10:53:46;;;;;;;4.23;1.63;;;3.90;47.80;;;;;;4200685;28;20330;-60
2021/03/24 10:56:21;;;;;;;3.47;2.10;;;4.00;48.10;;;;;;4204552;28;20269;-66
2021/03/24 10:58:40;;;;;;;4.50;1.03;;;4.10;48.10;;;;;;4207104;28;20310;-63
2021/03/24 11:01:10;;;;;;;7.87;1.63;;;4.20;49.40;;;;;;4204197;28;20319;-61
2021/03/24 11:03:21;;;;;;;1.15;0.45;;;4.30;49.80;;;;;;4206846;28;20274;-60
2021/03/24 11:05:30;;;;;;;4.18;1.42;;;4.10;48.90;;;;;;4202889;28;20340;-60
2021/03/24 11:07:51;;;;;;;5.57;2.03;;;4.00;48.60;;;;;;4206207;28;20086;-60
2021/03/24 11:10:20;;;;;;;4.03;1.50;;;4.00;48.70;;;;;;4202488;28;20848;-61
2021/03/24 11:12:37;;;;;;;5.23;1.03;;;4.00;49.90;;;;;;4183186;28;21129;-61
2021/03/24 11:14:54;;;;;;;3.10;0.70;;;4.20;49.70;;;;;;4205732;28;20599;-61
2021/03/24 11:17:05;;;;;;;6.20;1.47;;;4.40;49.60;;;;;;4206369;28;20261;-60
2021/03/24 11:19:29;;;;;;;2.87;1.20;;;4.40;48.20;;;;;;4205520;28;21066;-58
2021/03/24 11:21:53;;;;;;;7.87;1.50;;;4.50;49.10;;;;;;4204989;28;20288;-60
2021/03/24 11:24:06;;;;;;;4.73;1.57;;;4.40;48.20;;;;;;4204860;28;20284;-59
2021/03/24 11:26:16;;;;;;;9.57;2.73;;;4.50;48.20;;;;;;4205416;28;20306;-61
2021/03/24 11:28:29;;;;;;;3.47;0.70;;;4.70;48.30;;;;;;4206986;28;20346;-60
2021/03/24 11:30:47;;;;;;;4.97;1.07;;;4.70;48.10;;;;;;4204939;28;20520;-60
2021/03/24 11:33:15;;;;;;;4.00;1.53;;;4.90;48.90;;;;;;4207206;28;20753;-60